Time;durP1;ratioP1;P1;durP2;ratioP2;P2;SDS_P1;SDS_P2;PMS_P1;PMS_P2;Temp;Humidity;BMP_temperature;BMP_pressure;BME280_temperature;BME280_humidity;BME280_pressure;Samples;Min_cycle;Max_cycle;Signal;HPM_P1;HPM_P2
2022/03/28 00:00:16;;;;;;;;;;;;;;;3.76;49.13;100257.16;8392190;28;19970;-70
2022/03/28 00:04:37;;;;;;;;;;;;;;;3.75;49.03;100260.91;8396602;28;19995;-70
2022/03/28 00:08:38;;;;;;;;;;;;;;;3.67;49.40;100253.22;8396399;28;19967;-70
2022/03/28 00:12:39;;;;;;;;;;;;;;;3.63;49.37;100252.91;8378259;28;20361;-70
2022/03/28 00:16:39;;;;;;;;;;;;;;;3.60;50.38;100242.66;8396101;28;19994;-70
2022/03/28 00:20:40;;;;;;;;;;;;;;;3.53;50.91;100247.34;8391795;28;19971;-70
2022/03/28 00:24:41;;;;;;;;;;;;;;;3.44;50.73;100232.69;8391823;28;20093;-69
2022/03/28 00:28:42;;;;;;;;;;;;;;;3.39;51.06;100224.59;8391517;28;19975;-69
2022/03/28 00:32:42;;;;;;;;;;;;;;;3.31;51.52;100232.97;8391843;28;19971;-69
2022/03/28 00:36:43;;;;;;;;;;;;;;;3.27;51.65;100226.47;8391437;28;20024;-70
2022/03/28 00:40:44;;;;;;;;;;;;;;;3.20;52.44;100215.91;8391256;28;20501;-69
2022/03/28 00:44:45;;;;;;;;;;;;;;;3.17;52.76;100216.38;8391288;28;19978;-70
2022/03/28 00:48:46;;;;;;;;;;;;;;;3.12;52.93;100207.47;8391274;28;20516;-70
2022/03/28 00:52:46;;;;;;;;;;;;;;;3.06;53.75;100208.38;8376054;28;20027;-70
2022/03/28 00:56:47;;;;;;;;;;;;;;;2.98;54.26;100197.00;8394874;28;20081;-69
2022/03/28 01:00:48;;;;;;;;;;;;;;;2.94;55.36;100189.69;8394668;28;19968;-70
2022/03/28 01:04:50;;;;;;;;;;;;;;;2.89;55.24;100182.41;8394730;28;20094;-70
2022/03/28 01:08:51;;;;;;;;;;;;;;;2.84;56.21;100179.63;8408764;28;19974;-70
2022/03/28 01:12:52;;;;;;;;;;;;;;;2.76;56.08;100166.59;8393436;28;19967;-69
2022/03/28 01:21:12;;;;;;;;;;;;;;;2.66;55.86;100160.22;8394289;28;19972;-70
2022/03/28 01:25:13;;;;;;;;;;;;;;;2.64;56.23;100151.66;8394510;28;20504;-69
2022/03/28 01:29:14;;;;;;;;;;;;;;;2.55;57.15;100153.84;8393427;28;20017;-69
2022/03/28 01:33:15;;;;;;;;;;;;;;;2.51;56.71;100152.69;8394332;28;20332;-69
2022/03/28 01:37:15;;;;;;;;;;;;;;;2.48;57.52;100147.81;8393005;28;19997;-70
2022/03/28 01:41:16;;;;;;;;;;;;;;;2.42;57.33;100140.75;8391590;28;20010;-69
2022/03/28 01:45:18;;;;;;;;;;;;;;;2.43;57.48;100134.38;8394236;28;20342;-69
2022/03/28 01:49:19;;;;;;;;;;;;;;;2.39;57.90;100122.53;8394327;28;19975;-70
2022/03/28 01:53:20;;;;;;;;;;;;;;;2.41;58.37;100118.59;8397840;28;20017;-70
2022/03/28 01:57:21;;;;;;;;;;;;;;;2.44;58.72;100125.31;8399248;28;19986;-70
2022/03/28 02:01:21;;;;;;;;;;;;;;;2.43;59.46;100118.38;8400809;28;20412;-69
2022/03/28 02:05:22;;;;;;;;;;;;;;;2.42;59.17;100122.09;8398196;28;20279;-70
2022/03/28 02:09:23;;;;;;;;;;;;;;;2.31;59.55;100114.88;8400326;28;20521;-70
2022/03/28 02:13:24;;;;;;;;;;;;;;;2.25;59.63;100115.78;8400383;28;19974;-70
2022/03/28 02:17:24;;;;;;;;;;;;;;;2.25;59.61;100115.78;8400130;28;19987;-69
2022/03/28 02:21:25;;;;;;;;;;;;;;;2.28;59.12;100104.66;8397722;28;19993;-70
2022/03/28 02:25:26;;;;;;;;;;;;;;;2.44;61.07;100098.66;8414501;28;19971;-69
2022/03/28 02:29:27;;;;;;;;;;;;;;;2.85;61.46;100085.19;8399815;28;19971;-69
2022/03/28 02:33:27;;;;;;;;;;;;;;;3.29;61.73;100091.69;8399904;28;20108;-69
2022/03/28 02:37:28;;;;;;;;;;;;;;;3.56;61.24;100081.25;8397176;28;19993;-70
2022/03/28 02:41:29;;;;;;;;;;;;;;;3.88;61.16;100078.09;8399660;28;19971;-70
2022/03/28 02:45:31;;;;;;;;;;;;;;;4.07;60.42;100066.13;8397634;28;20345;-70
2022/03/28 02:49:32;;;;;;;;;;;;;;;4.22;60.17;100066.38;8380414;28;19994;-70
2022/03/28 02:53:33;;;;;;;;;;;;;;;4.33;60.03;100065.47;8398910;28;20061;-69
2022/03/28 02:57:33;;;;;;;;;;;;;;;4.37;59.90;100066.59;8399521;28;19991;-70
2022/03/28 03:01:34;;;;;;;;;;;;;;;4.51;59.69;100062.53;8397959;28;19967;-70
2022/03/28 03:05:35;;;;;;;;;;;;;;;4.63;59.51;100060.56;8398695;28;20112;-70
2022/03/28 03:09:35;;;;;;;;;;;;;;;4.56;59.61;100065.28;8396490;28;19978;-70
2022/03/28 03:13:36;;;;;;;;;;;;;;;4.40;59.97;100055.41;8398450;28;19967;-69
2022/03/28 03:17:37;;;;;;;;;;;;;;;4.18;59.99;100062.53;8396808;28;19983;-69
2022/03/28 03:21:38;;;;;;;;;;;;;;;3.86;60.38;100058.81;8396567;28;20057;-70
2022/03/28 03:25:39;;;;;;;;;;;;;;;3.61;60.54;100062.66;8397667;28;20014;-69
2022/03/28 03:29:40;;;;;;;;;;;;;;;3.39;61.12;100069.72;8397091;28;19971;-70
2022/03/28 03:33:41;;;;;;;;;;;;;;;3.24;61.59;100072.09;8397248;28;19974;-70
2022/03/28 03:37:42;;;;;;;;;;;;;;;3.08;61.86;100072.84;8395448;28;19990;-69
2022/03/28 03:41:43;;;;;;;;;;;;;;;3.00;61.67;100070.56;8394520;28;20070;-70
2022/03/28 03:45:44;;;;;;;;;;;;;;;2.90;62.31;100071.16;8395129;28;19971;-69
2022/03/28 03:49:45;;;;;;;;;;;;;;;2.85;62.38;100079.88;8397370;28;19971;-69
2022/03/28 03:53:45;;;;;;;;;;;;;;;2.79;62.75;100075.47;8396921;28;20029;-69
2022/03/28 03:57:47;;;;;;;;;;;;;;;2.74;63.04;100067.34;8397121;28;19991;-69
2022/03/28 04:01:48;;;;;;;;;;;;;;;2.67;63.11;100056.00;8396923;28;19999;-70
2022/03/28 04:05:49;;;;;;;;;;;;;;;2.64;62.97;100061.81;8397219;28;19967;-70
2022/03/28 04:09:49;;;;;;;;;;;;;;;2.57;63.22;100055.78;8398252;28;20060;-70
2022/03/28 04:13:50;;;;;;;;;;;;;;;2.54;63.25;100048.22;8409303;28;19971;-69
2022/03/28 04:17:51;;;;;;;;;;;;;;;2.54;63.67;100050.88;8396357;28;19987;-69
2022/03/28 04:21:52;;;;;;;;;;;;;;;2.54;63.21;100056.22;8396095;28;20449;-70
2022/03/28 04:25:52;;;;;;;;;;;;;;;2.54;63.31;100050.88;8396374;28;20077;-69
2022/03/28 04:29:54;;;;;;;;;;;;;;;2.53;63.48;100043.97;8392066;28;19974;-70
2022/03/28 04:33:54;;;;;;;;;;;;;;;2.52;63.44;100053.81;8396346;28;20371;-69
2022/03/28 04:37:55;;;;;;;;;;;;;;;2.51;63.51;100051.38;8396103;28;19991;-69
2022/03/28 04:41:56;;;;;;;;;;;;;;;2.52;63.62;100047.66;8396246;28;20061;-69
2022/03/28 04:45:57;;;;;;;;;;;;;;;2.53;63.79;100046.63;8395970;28;19975;-69
2022/03/28 04:49:58;;;;;;;;;;;;;;;2.52;64.32;100042.31;8395819;28;20066;-69
2022/03/28 04:53:59;;;;;;;;;;;;;;;2.54;64.38;100034.88;8376727;28;20045;-70
2022/03/28 04:57:59;;;;;;;;;;;;;;;2.50;64.50;100033.75;8395620;28;20038;-69
2022/03/28 05:02:00;;;;;;;;;;;;;;;2.49;64.71;100030.25;8395308;28;20334;-69
2022/03/28 05:06:01;;;;;;;;;;;;;;;2.50;64.47;100028.41;8393094;28;20018;-70
2022/03/28 05:10:03;;;;;;;;;;;;;;;2.52;64.81;100021.00;8394118;28;19974;-70
2022/03/28 05:14:05;;;;;;;;;;;;;;;2.53;64.97;100017.28;8395109;28;20029;-70
2022/03/28 05:18:06;;;;;;;;;;;;;;;2.60;65.65;100023.28;8359479;28;20032;-70
2022/03/28 05:22:06;;;;;;;;;;;;;;;2.68;65.25;100009.59;8395323;28;20382;-70
2022/03/28 05:26:07;;;;;;;;;;;;;;;2.78;64.92;100009.81;8391774;28;20133;-69
2022/03/28 05:30:08;;;;;;;;;;;;;;;2.91;65.49;99998.88;8395009;28;20014;-71
2022/03/28 05:34:10;;;;;;;;;;;;;;;3.02;65.05;99993.72;8395135;28;20358;-69
2022/03/28 05:38:11;;;;;;;;;;;;;;;3.22;65.76;99999.47;8394768;28;20033;-70
2022/03/28 05:42:12;;;;;;;;;;;;;;;3.37;65.95;99991.72;8394991;28;19975;-70
2022/03/28 05:46:12;;;;;;;;;;;;;;;3.54;65.98;99992.56;8394792;28;19982;-70
2022/03/28 05:50:13;;;;;;;;;;;;;;;3.89;67.28;99983.50;8394802;28;19981;-69
2022/03/28 05:54:14;;;;;;;;;;;;;;;4.33;69.04;99982.56;8394905;28;20315;-69
2022/03/28 05:58:15;;;;;;;;;;;;;;;4.85;69.63;99987.53;8394562;28;19991;-70
2022/03/28 06:02:16;;;;;;;;;;;;;;;5.26;69.42;99983.41;8394381;28;20430;-70
2022/03/28 06:06:17;;;;;;;;;;;;;;;5.64;68.83;99974.41;8394544;28;19975;-70
2022/03/28 06:10:17;;;;;;;;;;;;;;;5.83;68.58;99975.63;8394301;28;20077;-69
2022/03/28 06:14:18;;;;;;;;;;;;;;;6.03;68.07;99981.16;8394829;28;20360;-70
2022/03/28 06:18:19;;;;;;;;;;;;;;;6.30;67.43;99973.84;8408892;28;19990;-69
2022/03/28 06:22:20;;;;;;;;;;;;;;;6.59;66.40;99970.78;8394276;28;20013;-70
2022/03/28 06:26:21;;;;;;;;;;;;;;;6.92;65.80;99967.69;8391834;28;20385;-70
2022/03/28 06:30:22;;;;;;;;;;;;;;;7.15;65.23;99959.16;8394222;28;19975;-70
2022/03/28 06:34:22;;;;;;;;;;;;;;;7.34;64.97;99951.41;8394164;28;20005;-70
2022/03/28 06:38:23;;;;;;;;;;;;;;;7.53;64.51;99959.75;8396436;28;20071;-70
2022/03/28 06:42:25;;;;;;;;;;;;;;;7.82;63.20;99947.41;8399837;28;19981;-70
2022/03/28 06:46:26;;;;;;;;;;;;;;;8.06;62.21;99943.06;8399894;28;19975;-70
2022/03/28 06:50:27;;;;;;;;;;;;;;;8.26;61.77;99946.78;8399823;28;19975;-70
2022/03/28 06:54:28;;;;;;;;;;;;;;;8.51;60.41;99949.44;8399449;28;19975;-70
2022/03/28 06:58:28;;;;;;;;;;;;;;;8.56;60.39;99941.34;8399401;28;20460;-69
2022/03/28 07:02:30;;;;;;;;;;;;;;;8.70;59.99;99931.59;8399049;28;19996;-70
2022/03/28 07:06:31;;;;;;;;;;;;;;;8.78;58.95;99933.69;8397100;28;19960;-69
2022/03/28 07:10:32;;;;;;;;;;;;;;;8.88;58.99;99933.66;8399003;28;20068;-70
2022/03/28 07:14:33;;;;;;;;;;;;;;;9.00;58.50;99929.81;8399199;28;19975;-70
2022/03/28 07:18:34;;;;;;;;;;;;;;;9.14;57.88;99936.22;8398895;28;19991;-70
2022/03/28 07:22:34;;;;;;;;;;;;;;;9.36;57.86;99928.50;8399074;28;19971;-70
2022/03/28 07:26:35;;;;;;;;;;;;;;;9.44;57.30;99925.22;8398690;28;19974;-70
2022/03/28 07:30:36;;;;;;;;;;;;;;;9.59;56.92;99927.81;8398485;28;20054;-70
2022/03/28 07:34:38;;;;;;;;;;;;;;;9.78;56.50;99924.44;8398432;28;19971;-70
2022/03/28 07:38:38;;;;;;;;;;;;;;;9.88;56.71;99921.63;8398170;28;19999;-70
2022/03/28 07:42:41;;;;;;;;;;;;;;;9.98;56.29;99922.34;8395862;28;19975;-70
2022/03/28 07:46:44;;;;;;;;;;;;;;;10.16;56.69;99920.81;8397879;28;19997;-70
2022/03/28 07:50:46;;;;;;;;;;;;;;;10.38;55.69;99917.63;8394782;28;19955;-69
2022/03/28 07:54:48;;;;;;;;;;;;;;;10.47;55.61;99908.59;8397972;28;19966;-70
2022/03/28 07:58:49;;;;;;;;;;;;;;;10.65;55.77;99900.84;8397589;28;19924;-70
2022/03/28 08:02:49;;;;;;;;;;;;;;;10.78;55.93;99894.72;8394705;28;19921;-70
2022/03/28 08:06:50;;;;;;;;;;;;;;;10.94;55.31;99898.84;8397340;28;19921;-70
2022/03/28 08:10:51;;;;;;;;;;;;;;;11.09;55.09;99885.09;8395084;28;20614;-70
2022/03/28 08:14:52;;;;;;;;;;;;;;;11.25;54.99;99878.38;8397293;28;19943;-70
2022/03/28 08:18:53;;;;;;;;;;;;;;;11.40;54.68;99872.72;8396986;28;19924;-70
2022/03/28 08:22:54;;;;;;;;;;;;;;;11.54;54.45;99874.63;8396422;28;19921;-69
2022/03/28 08:26:55;;;;;;;;;;;;;;;11.61;53.63;99861.53;8396573;28;19943;-69
2022/03/28 08:30:56;;;;;;;;;;;;;;;11.68;53.55;99857.38;8396863;28;19920;-70
2022/03/28 08:34:57;;;;;;;;;;;;;;;11.77;53.62;99852.09;8396569;28;19963;-69
2022/03/28 08:38:57;;;;;;;;;;;;;;;11.90;53.56;99861.34;8396045;28;20384;-69
2022/03/28 08:42:58;;;;;;;;;;;;;;;12.04;53.74;99845.91;8396352;28;19978;-69
2022/03/28 08:46:59;;;;;;;;;;;;;;;12.35;53.95;99840.69;8396000;28;19926;-70
2022/03/28 08:51:00;;;;;;;;;;;;;;;12.63;52.88;99836.84;8395935;28;20402;-71
2022/03/28 08:55:03;;;;;;;;;;;;;;;12.85;52.24;99836.88;8394257;28;19920;-69
2022/03/28 08:59:05;;;;;;;;;;;;;;;12.94;51.60;99826.91;8394285;28;20346;-70
2022/03/28 09:03:06;;;;;;;;;;;;;;;13.28;50.89;99820.97;8395224;28;19920;-70
2022/03/28 09:07:06;;;;;;;;;;;;;;;13.44;49.60;99807.81;8395686;28;20439;-70
2022/03/28 09:11:19;;;;;;;;;;;;;;;13.47;49.54;99812.66;8395347;28;19924;-70
2022/03/28 09:15:19;;;;;;;;;;;;;;;13.56;48.86;99821.63;8395280;28;19924;-71
2022/03/28 09:19:20;;;;;;;;;;;;;;;13.62;47.74;99809.53;8395341;28;20016;-70
2022/03/28 09:23:49;;;;;;;;;;;;;;;13.71;47.79;99807.66;8395013;28;20437;-70
2022/03/28 09:27:50;;;;;;;;;;;;;;;13.85;47.08;99797.50;8324914;28;20395;-70
2022/03/28 09:31:51;;;;;;;;;;;;;;;14.01;46.44;99794.38;8324635;28;19921;-70
2022/03/28 09:35:51;;;;;;;;;;;;;;;14.10;46.11;99787.06;8324678;28;19920;-70
2022/03/28 09:39:52;;;;;;;;;;;;;;;14.28;45.55;99796.81;8324696;28;19928;-70
2022/03/28 09:43:53;;;;;;;;;;;;;;;14.41;44.14;99787.00;8324852;28;19927;-70
2022/03/28 09:47:55;;;;;;;;;;;;;;;14.36;44.20;99779.75;8324342;28;19964;-70
2022/03/28 09:52:03;;;;;;;;;;;;;;;14.41;44.76;99776.91;8324480;28;19932;-70
2022/03/28 09:56:04;;;;;;;;;;;;;;;14.58;44.73;99763.34;8324410;28;20563;-70
2022/03/28 10:00:09;;;;;;;;;;;;;;;14.67;44.22;99758.72;8324201;28;19964;-70
2022/03/28 10:04:10;;;;;;;;;;;;;;;14.97;43.36;99745.25;8360684;28;19926;-71
2022/03/28 10:08:11;;;;;;;;;;;;;;;14.88;41.85;99758.06;8390273;28;20304;-70
2022/03/28 10:12:12;;;;;;;;;;;;;;;14.77;42.76;99733.94;8392717;28;19924;-70
2022/03/28 10:16:13;;;;;;;;;;;;;;;15.03;42.33;99733.09;8396621;28;19920;-70
2022/03/28 10:20:13;;;;;;;;;;;;;;;15.16;41.29;99729.41;8396857;28;20018;-71
2022/03/28 10:24:16;;;;;;;;;;;;;;;15.28;41.79;99740.38;8396335;28;19972;-71
2022/03/28 10:28:20;;;;;;;;;;;;;;;15.30;41.92;99716.38;8379790;28;19924;-70
2022/03/28 10:32:21;;;;;;;;;;;;;;;15.34;42.09;99711.88;8396383;28;19920;-70
2022/03/28 10:36:23;;;;;;;;;;;;;;;15.56;41.61;99719.84;8397823;28;20332;-70
2022/03/28 10:40:27;;;;;;;;;;;;;;;15.62;41.96;99713.09;8400310;28;20354;-70
2022/03/28 10:44:41;;;;;;;;;;;;;;;15.73;41.51;99686.28;8400220;28;19920;-70
2022/03/28 10:48:51;;;;;;;;;;;;;;;15.95;41.51;99687.94;8399812;28;19928;-71
2022/03/28 10:53:10;;;;;;;;;;;;;;;16.18;41.12;99663.91;8399289;28;19920;-71
2022/03/28 10:57:27;;;;;;;;;;;;;;;16.23;41.01;99672.66;8399272;28;19931;-71
2022/03/28 11:01:27;;;;;;;;;;;;;;;16.33;40.78;99661.38;8399472;28;19921;-70
2022/03/28 11:05:28;;;;;;;;;;;;;;;16.37;40.34;99651.41;8399170;28;19927;-70
2022/03/28 11:09:34;;;;;;;;;;;;;;;16.54;40.36;99646.94;8399160;28;19927;-70
2022/03/28 11:13:35;;;;;;;;;;;;;;;16.73;40.38;99626.22;8399371;28;19982;-70
2022/03/28 11:17:36;;;;;;;;;;;;;;;16.84;38.89;99640.25;8363507;28;19999;-70
2022/03/28 11:21:54;;;;;;;;;;;;;;;16.86;39.63;99618.88;8398851;28;19927;-71
2022/03/28 11:25:55;;;;;;;;;;;;;;;16.88;38.63;99616.59;8398637;28;19963;-70
2022/03/28 11:30:10;;;;;;;;;;;;;;;16.99;38.65;99606.84;8396212;28;19948;-70
2022/03/28 11:34:11;;;;;;;;;;;;;;;17.07;38.57;99592.31;8396516;28;19964;-70
2022/03/28 11:38:12;;;;;;;;;;;;;;;17.17;38.85;99591.88;8398378;28;19924;-70
2022/03/28 11:42:13;;;;;;;;;;;;;;;17.28;39.58;99571.19;8397328;28;19927;-70
2022/03/28 11:46:15;;;;;;;;;;;;;;;17.50;38.24;99571.84;8398237;28;19947;-70
2022/03/28 11:50:16;;;;;;;;;;;;;;;17.59;38.27;99558.88;8398227;28;20251;-70
2022/03/28 11:54:18;;;;;;;;;;;;;;;17.75;36.94;99551.56;8397716;28;20323;-71
2022/03/28 11:58:29;;;;;;;;;;;;;;;17.64;37.38;99545.00;8397909;28;20011;-69
2022/03/28 12:02:32;;;;;;;;;;;;;;;17.75;37.23;99546.13;8397813;28;19920;-71
2022/03/28 12:06:34;;;;;;;;;;;;;;;17.95;36.79;99530.69;8397612;28;20383;-70
2022/03/28 12:10:36;;;;;;;;;;;;;;;17.98;36.48;99522.56;8397528;28;20038;-70
2022/03/28 12:14:38;;;;;;;;;;;;;;;18.14;36.37;99515.22;8397274;28;19920;-70
2022/03/28 12:18:39;;;;;;;;;;;;;;;18.26;36.59;99505.38;8397092;28;19924;-71
2022/03/28 12:22:43;;;;;;;;;;;;;;;18.38;35.99;99491.63;8411358;28;19974;-71
2022/03/28 12:26:45;;;;;;;;;;;;;;;18.30;35.25;99484.38;8396723;28;19920;-70
2022/03/28 12:30:50;;;;;;;;;;;;;;;18.43;35.19;99483.19;8396730;28;19970;-71
2022/03/28 12:34:51;;;;;;;;;;;;;;;18.55;35.88;99474.94;8396570;28;19920;-71
2022/03/28 12:38:56;;;;;;;;;;;;;;;18.51;35.45;99474.00;8396398;28;19956;-70
2022/03/28 12:42:58;;;;;;;;;;;;;;;18.52;35.72;99459.19;8396798;28;20402;-70
2022/03/28 12:47:03;;;;;;;;;;;;;;;18.59;35.66;99448.47;8396186;28;19964;-70
2022/03/28 12:51:05;;;;;;;;;;;;;;;18.73;35.57;99437.84;8396248;28;19920;-70
2022/03/28 12:55:06;;;;;;;;;;;;;;;18.73;35.14;99432.38;8395525;28;20019;-71
2022/03/28 12:59:07;;;;;;;;;;;;;;;18.85;35.61;99429.53;8398608;28;19924;-70
2022/03/28 13:03:08;;;;;;;;;;;;;;;18.91;36.43;99411.72;8395596;28;19997;-70
2022/03/28 13:07:09;;;;;;;;;;;;;;;19.04;36.14;99408.84;8395443;28;19924;-71
2022/03/28 13:11:10;;;;;;;;;;;;;;;19.13;35.82;99384.81;8376696;28;19921;-70
2022/03/28 13:15:18;;;;;;;;;;;;;;;19.17;34.93;99391.16;8395526;28;19924;-71
2022/03/28 13:19:19;;;;;;;;;;;;;;;19.15;35.51;99368.81;8395368;28;20027;-70
2022/03/28 13:23:21;;;;;;;;;;;;;;;19.30;35.30;99370.69;8393063;28;19920;-70
2022/03/28 13:31:41;;;;;;;;;;;;;;;20.65;33.34;99361.03;8394755;28;19920;-71
2022/03/28 13:35:43;;;;;;;;;;;;;;;21.41;31.11;99353.44;8395142;28;19924;-70
2022/03/28 13:39:44;;;;;;;;;;;;;;;22.29;30.43;99342.56;8395027;28;19962;-70
2022/03/28 13:43:45;;;;;;;;;;;;;;;23.04;29.15;99343.09;8394791;28;19967;-70
2022/03/28 13:47:46;;;;;;;;;;;;;;;23.32;29.23;99332.19;8398475;28;19924;-70
2022/03/28 13:51:46;;;;;;;;;;;;;;;24.04;28.35;99322.13;8401684;28;20275;-70
2022/03/28 13:55:47;;;;;;;;;;;;;;;24.79;26.75;99324.47;8399041;28;19924;-70
2022/03/28 13:59:48;;;;;;;;;;;;;;;25.32;26.41;99318.00;8400155;28;20000;-71
2022/03/28 14:03:49;;;;;;;;;;;;;;;25.79;25.25;99318.53;8401024;28;19974;-71
2022/03/28 14:07:50;;;;;;;;;;;;;;;25.87;25.12;99300.69;8401109;28;20503;-71
2022/03/28 14:11:50;;;;;;;;;;;;;;;25.37;25.18;99303.75;8400973;28;19975;-71
2022/03/28 14:15:53;;;;;;;;;;;;;;;25.52;25.23;99296.16;8400918;28;19920;-71
2022/03/28 14:19:54;;;;;;;;;;;;;;;25.62;25.12;99290.59;8400797;28;19924;-70
2022/03/28 14:23:55;;;;;;;;;;;;;;;25.88;24.69;99293.97;8400716;28;19946;-72
2022/03/28 14:27:56;;;;;;;;;;;;;;;25.69;24.87;99286.22;8398453;28;19920;-70
2022/03/28 14:31:56;;;;;;;;;;;;;;;26.06;24.73;99272.50;8400467;28;19927;-71
2022/03/28 14:35:57;;;;;;;;;;;;;;;26.54;24.42;99274.44;8399106;28;19981;-70
2022/03/28 14:39:58;;;;;;;;;;;;;;;25.91;24.68;99271.03;8400039;28;19947;-71
2022/03/28 14:43:59;;;;;;;;;;;;;;;25.54;24.63;99269.66;8399916;28;19921;-72
2022/03/28 14:48:00;;;;;;;;;;;;;;;25.76;25.21;99252.94;8380992;28;19978;-70
2022/03/28 14:52:01;;;;;;;;;;;;;;;26.32;24.35;99252.50;8399598;28;19952;-71
2022/03/28 14:56:01;;;;;;;;;;;;;;;25.91;24.59;99243.38;8397141;28;20011;-71
2022/03/28 15:00:07;;;;;;;;;;;;;;;25.80;25.03;99243.44;8393169;28;20275;-71
2022/03/28 15:04:08;;;;;;;;;;;;;;;24.89;25.64;99239.22;8397551;28;20341;-71
2022/03/28 15:08:10;;;;;;;;;;;;;;;24.46;26.86;99233.03;8396201;28;19924;-71
2022/03/28 15:12:11;;;;;;;;;;;;;;;25.63;25.34;99228.56;8396681;28;19960;-74
2022/03/28 15:16:12;;;;;;;;;;;;;;;25.49;25.46;99225.84;8396938;28;20377;-70
2022/03/28 15:20:12;;;;;;;;;;;;;;;24.34;26.43;99225.94;8397530;28;19946;-70
2022/03/28 15:24:13;;;;;;;;;;;;;;;23.14;28.65;99221.13;8412042;28;20375;-71
2022/03/28 15:28:14;;;;;;;;;;;;;;;23.52;27.88;99219.66;8396384;28;20411;-71
2022/03/28 15:32:15;;;;;;;;;;;;;;;24.33;26.82;99210.56;8396133;28;19920;-69
2022/03/28 15:36:16;;;;;;;;;;;;;;;25.02;26.51;99198.88;8398274;28;19986;-69
2022/03/28 15:40:18;;;;;;;;;;;;;;;24.48;26.90;99203.06;8398651;28;20315;-69
2022/03/28 15:44:19;;;;;;;;;;;;;;;22.41;29.65;99183.84;8398961;28;19921;-69
2022/03/28 15:48:20;;;;;;;;;;;;;;;21.23;31.35;99187.66;8397610;28;19955;-69
2022/03/28 15:52:20;;;;;;;;;;;;;;;22.05;30.51;99177.38;8397765;28;19978;-68
2022/03/28 15:56:22;;;;;;;;;;;;;;;22.31;29.88;99177.88;8397656;28;20440;-69
2022/03/28 16:00:22;;;;;;;;;;;;;;;21.05;31.61;99176.44;8397647;28;20027;-70
2022/03/28 16:04:23;;;;;;;;;;;;;;;20.34;32.86;99163.84;8394175;28;20299;-71
2022/03/28 16:08:25;;;;;;;;;;;;;;;19.86;33.77;99153.75;8397089;28;19981;-71
2022/03/28 16:12:26;;;;;;;;;;;;;;;19.51;34.52;99160.22;8396577;28;19920;-70
2022/03/28 16:16:26;;;;;;;;;;;;;;;19.16;35.19;99159.59;8397119;28;20405;-71
2022/03/28 16:20:27;;;;;;;;;;;;;;;19.15;35.30;99147.06;8396350;28;19920;-71
2022/03/28 16:24:28;;;;;;;;;;;;;;;18.78;36.05;99144.84;8391810;28;19924;-70
2022/03/28 16:28:30;;;;;;;;;;;;;;;18.47;36.64;99139.50;8392460;28;19974;-71
2022/03/28 16:32:31;;;;;;;;;;;;;;;18.23;37.11;99129.66;8392340;28;19931;-71
2022/03/28 16:36:32;;;;;;;;;;;;;;;18.07;37.45;99126.97;8392386;28;19924;-71
2022/03/28 16:40:32;;;;;;;;;;;;;;;18.03;37.63;99120.59;8393833;28;20008;-70
2022/03/28 16:44:34;;;;;;;;;;;;;;;17.68;38.08;99119.81;8391296;28;19921;-70
2022/03/28 16:48:36;;;;;;;;;;;;;;;17.49;38.59;99106.88;8391466;28;20003;-72
2022/03/28 16:52:37;;;;;;;;;;;;;;;17.37;39.04;99114.38;8394254;28;19974;-73
2022/03/28 16:56:38;;;;;;;;;;;;;;;17.13;39.41;99116.13;8395551;28;19935;-70
2022/03/28 17:00:39;;;;;;;;;;;;;;;16.93;39.61;99106.25;8395364;28;19925;-70
2022/03/28 17:04:40;;;;;;;;;;;;;;;16.81;39.93;99104.38;8395480;28;20438;-71
2022/03/28 17:08:40;;;;;;;;;;;;;;;16.55;40.29;99095.09;8393934;28;20015;-70
2022/03/28 17:12:42;;;;;;;;;;;;;;;16.29;40.79;99093.59;8392739;28;19920;-70
2022/03/28 17:16:43;;;;;;;;;;;;;;;16.24;40.82;99102.00;8394688;28;19920;-70
2022/03/28 17:20:44;;;;;;;;;;;;;;;15.96;41.23;99095.75;8426383;28;20287;-71
2022/03/28 17:24:45;;;;;;;;;;;;;;;15.70;41.42;99092.63;8394933;28;19920;-70
2022/03/28 17:28:46;;;;;;;;;;;;;;;15.48;41.91;99091.13;8394643;28;19924;-70
2022/03/28 17:32:47;;;;;;;;;;;;;;;15.38;42.02;99092.38;8394242;28;19931;-70
2022/03/28 17:36:48;;;;;;;;;;;;;;;15.24;42.25;99086.47;8394665;28;19943;-70
2022/03/28 17:40:49;;;;;;;;;;;;;;;15.02;42.64;99079.53;8395174;28;19924;-70
2022/03/28 17:44:50;;;;;;;;;;;;;;;14.85;43.16;99084.41;8394796;28;19921;-71
2022/03/28 17:48:52;;;;;;;;;;;;;;;14.77;43.33;99073.28;8394849;28;19920;-70
2022/03/28 17:52:53;;;;;;;;;;;;;;;14.72;43.37;99078.94;8394067;28;20011;-72
2022/03/28 17:56:54;;;;;;;;;;;;;;;14.62;43.69;99087.50;8394650;28;19933;-70
2022/03/28 18:00:55;;;;;;;;;;;;;;;14.48;43.92;99081.59;8394833;28;19928;-70
2022/03/28 18:04:56;;;;;;;;;;;;;;;14.24;44.08;99081.44;8394033;28;19920;-71
2022/03/28 18:08:57;;;;;;;;;;;;;;;13.89;44.59;99084.47;8393446;28;19928;-70
2022/03/28 18:12:58;;;;;;;;;;;;;;;13.61;45.28;99083.38;8391619;28;20398;-70
2022/03/28 18:16:59;;;;;;;;;;;;;;;13.27;46.14;99073.50;8390762;28;20015;-70
2022/03/28 18:21:00;;;;;;;;;;;;;;;13.01;46.86;99068.16;8394370;28;19970;-70
2022/03/28 18:25:02;;;;;;;;;;;;;;;12.82;47.21;99065.06;8394252;28;19920;-70
2022/03/28 18:29:04;;;;;;;;;;;;;;;12.64;47.76;99063.50;8393041;28;19927;-70
2022/03/28 18:33:05;;;;;;;;;;;;;;;12.46;48.08;99056.56;8396415;28;19927;-70
2022/03/28 18:37:06;;;;;;;;;;;;;;;12.34;48.43;99064.53;8400622;28;19924;-70
2022/03/28 18:41:07;;;;;;;;;;;;;;;12.11;48.80;99044.97;8400352;28;19977;-70
2022/03/28 18:45:09;;;;;;;;;;;;;;;11.95;49.51;99044.66;8397976;28;19928;-70
2022/03/28 18:49:12;;;;;;;;;;;;;;;11.83;49.78;99066.16;8400331;28;19931;-71
2022/03/28 18:53:14;;;;;;;;;;;;;;;11.68;50.01;99053.06;8414355;28;19946;-70
2022/03/28 18:57:15;;;;;;;;;;;;;;;11.54;50.74;99057.78;8396042;28;20352;-71
2022/03/28 19:01:16;;;;;;;;;;;;;;;11.44;51.17;99059.69;8399480;28;19920;-70
2022/03/28 19:05:18;;;;;;;;;;;;;;;11.33;51.20;99063.81;8398332;28;20422;-70
2022/03/28 19:09:24;;;;;;;;;;;;;;;11.25;51.21;99045.66;8399536;28;20380;-71
2022/03/28 19:13:25;;;;;;;;;;;;;;;11.17;51.53;99043.72;8399466;28;19951;-70
2022/03/28 19:17:26;;;;;;;;;;;;;;;11.11;52.06;99044.19;8398822;28;19921;-70
2022/03/28 19:21:27;;;;;;;;;;;;;;;10.94;52.58;99036.81;8398656;28;19932;-70
2022/03/28 19:25:31;;;;;;;;;;;;;;;10.85;52.79;99033.28;8381190;28;19925;-70
2022/03/28 19:29:32;;;;;;;;;;;;;;;10.74;52.65;99037.34;8370810;28;19927;-70
2022/03/28 19:33:33;;;;;;;;;;;;;;;10.61;53.03;99036.38;8397208;28;20023;-70
2022/03/28 19:37:34;;;;;;;;;;;;;;;10.56;53.33;99028.41;8370745;28;19928;-70
2022/03/28 19:41:35;;;;;;;;;;;;;;;10.47;53.69;99027.53;8390911;28;19921;-70
2022/03/28 19:45:36;;;;;;;;;;;;;;;10.38;54.09;99027.50;8379993;28;19949;-70
2022/03/28 19:49:37;;;;;;;;;;;;;;;10.27;54.29;99015.34;8379995;28;19970;-70
2022/03/28 19:53:40;;;;;;;;;;;;;;;10.20;54.31;99014.22;8376436;28;20271;-70
2022/03/28 19:57:43;;;;;;;;;;;;;;;10.08;54.54;99012.03;8394682;28;19956;-70
2022/03/28 20:01:44;;;;;;;;;;;;;;;9.99;54.82;98995.00;8361884;28;19948;-70
2022/03/28 20:05:46;;;;;;;;;;;;;;;9.93;54.56;98998.94;8382404;28;20577;-70
2022/03/28 20:09:52;;;;;;;;;;;;;;;9.85;54.82;98996.94;8394104;28;20139;-70
2022/03/28 20:13:54;;;;;;;;;;;;;;;9.79;55.23;98992.78;8373493;28;19921;-70
2022/03/28 20:17:56;;;;;;;;;;;;;;;9.67;55.71;98986.06;8374781;28;19928;-70
2022/03/28 20:21:57;;;;;;;;;;;;;;;9.61;55.71;98975.69;8375596;28;19920;-70
2022/03/28 20:25:59;;;;;;;;;;;;;;;9.57;55.70;98970.09;8377894;28;20384;-70
2022/03/28 20:30:01;;;;;;;;;;;;;;;9.53;55.84;98973.69;8381103;28;19921;-70
2022/03/28 20:34:02;;;;;;;;;;;;;;;9.45;56.11;98966.34;8381561;28;20395;-70
2022/03/28 20:38:03;;;;;;;;;;;;;;;9.36;56.31;98963.56;8394739;28;20011;-70
2022/03/28 20:42:05;;;;;;;;;;;;;;;9.25;57.01;98956.84;8391900;28;19975;-70
2022/03/28 20:46:06;;;;;;;;;;;;;;;9.18;57.12;98962.63;8408403;28;20332;-70
2022/03/28 20:50:08;;;;;;;;;;;;;;;9.12;57.14;98957.63;8358634;28;19924;-70
2022/03/28 20:54:10;;;;;;;;;;;;;;;9.04;57.21;98961.06;8377406;28;19921;-70
2022/03/28 20:58:10;;;;;;;;;;;;;;;9.02;57.54;98957.84;8389849;28;19921;-70
2022/03/28 21:02:12;;;;;;;;;;;;;;;8.95;57.82;98962.84;8391831;28;20124;-70
2022/03/28 21:06:13;;;;;;;;;;;;;;;8.95;57.63;98962.84;8366321;28;19927;-70